createdAt,value
2024-04-23T00:00:16.678Z,94767.00
2024-04-23T00:01:16.719Z,94765.00
2024-04-23T00:02:16.705Z,94761.00
2024-04-23T00:03:16.722Z,94755.00
2024-04-23T00:04:16.722Z,94756.00
2024-04-23T00:05:16.830Z,94752.00
2024-04-23T00:06:16.818Z,94754.00
2024-04-23T00:07:16.871Z,94752.00
2024-04-23T00:08:16.946Z,94748.00
2024-04-23T00:09:17.019Z,94751.00
2024-04-23T00:10:17.124Z,94747.00
2024-04-23T00:11:17.314Z,94746.00
2024-04-23T00:12:17.322Z,94744.00
2024-04-23T00:13:17.341Z,94741.00
2024-04-23T00:14:17.451Z,94739.00
2024-04-23T00:15:17.541Z,94737.00
2024-04-23T00:16:17.622Z,94736.00
2024-04-23T00:17:17.702Z,94733.00
2024-04-23T00:18:17.885Z,94733.00
2024-04-23T00:19:17.856Z,94731.00
2024-04-23T00:20:17.951Z,94727.00
2024-04-23T00:21:18.031Z,94726.00
2024-04-23T00:22:18.112Z,94721.00
2024-04-23T00:23:18.190Z,94717.00
2024-04-23T00:24:18.315Z,94714.00
2024-04-23T00:25:18.367Z,94712.00
2024-04-23T00:26:18.461Z,94711.00
2024-04-23T00:27:18.520Z,94710.00
2024-04-23T00:28:18.640Z,94712.00
2024-04-23T00:29:18.706Z,94712.00
2024-04-23T00:30:18.816Z,94711.00
2024-04-23T00:31:18.881Z,94711.00
2024-04-23T00:32:19.029Z,94710.00
2024-04-23T00:33:19.087Z,94709.00
2024-04-23T00:34:19.122Z,94709.00
2024-04-23T00:35:19.215Z,94708.00
2024-04-23T00:36:19.288Z,94708.00
2024-04-23T00:37:19.403Z,94708.00
2024-04-23T00:38:19.458Z,94708.00
2024-04-23T00:39:19.574Z,94709.00
2024-04-23T00:40:19.646Z,94710.00
2024-04-23T00:41:19.711Z,94709.00
2024-04-23T00:42:19.818Z,94710.00
2024-04-23T00:43:19.920Z,94711.00
2024-04-23T00:44:20.004Z,94710.00
2024-04-23T00:45:20.073Z,94708.00
2024-04-23T00:46:20.168Z,94708.00
2024-04-23T00:47:20.304Z,94706.00
2024-04-23T00:48:20.485Z,94705.00
2024-04-23T00:49:20.447Z,94703.00
2024-04-23T00:50:20.518Z,94703.00
2024-04-23T00:51:20.600Z,94703.00
2024-04-23T00:52:20.712Z,94702.00
2024-04-23T00:53:20.799Z,94705.00
2024-04-23T00:54:20.881Z,94703.00
2024-04-23T00:55:20.940Z,94702.00
2024-04-23T00:56:21.044Z,94703.00
2024-04-23T00:57:21.115Z,94704.00
2024-04-23T00:58:21.208Z,94700.00
2024-04-23T00:59:21.298Z,94701.00
2024-04-23T01:00:21.379Z,94696.00
2024-04-23T01:01:21.439Z,94697.00
2024-04-23T01:02:21.536Z,94697.00
2024-04-23T01:03:21.706Z,94694.00
2024-04-23T01:04:21.722Z,94694.00
2024-04-23T01:05:21.821Z,94694.00
2024-04-23T01:06:21.889Z,94691.00
2024-04-23T01:07:21.949Z,94694.00
2024-04-23T01:08:22.019Z,94694.00
2024-04-23T01:09:22.120Z,94692.00
2024-04-23T01:10:22.182Z,94691.00
2024-04-23T01:11:22.332Z,94690.00
2024-04-23T01:12:22.358Z,94687.00
2024-04-23T01:13:22.439Z,94686.00
2024-04-23T01:14:22.555Z,94686.00
2024-04-23T01:15:22.638Z,94685.00
2024-04-23T01:16:22.700Z,94684.00
2024-04-23T01:17:22.865Z,94683.00
2024-04-23T01:18:22.926Z,94685.00
2024-04-23T01:19:22.974Z,94684.00
2024-04-23T01:20:23.063Z,94684.00
2024-04-23T01:21:23.129Z,94682.00
2024-04-23T01:22:23.239Z,94678.00
2024-04-23T01:23:23.316Z,94680.00
2024-04-23T01:24:23.426Z,94680.00
2024-04-23T01:25:23.493Z,94679.00
2024-04-23T01:26:23.572Z,94679.00
2024-04-23T01:27:23.643Z,94680.00
2024-04-23T01:28:23.752Z,94679.00
2024-04-23T01:29:23.840Z,94681.00
2024-04-23T01:30:23.925Z,94678.00
2024-04-23T01:31:24.152Z,94678.00
2024-04-23T01:32:24.186Z,94676.00
2024-04-23T01:33:24.270Z,94674.00
2024-04-23T01:34:24.321Z,94674.00
2024-04-23T01:35:24.316Z,94673.00
2024-04-23T01:36:24.395Z,94674.00
2024-04-23T01:37:24.582Z,94674.00
2024-04-23T01:38:24.572Z,94672.00
2024-04-23T01:39:24.648Z,94673.00
2024-04-23T01:40:24.772Z,94673.00
2024-04-23T01:41:24.833Z,94672.00
2024-04-23T01:42:24.921Z,94674.00
2024-04-23T01:43:25.048Z,94672.00
2024-04-23T01:44:25.108Z,94671.00
2024-04-23T01:45:25.180Z,94669.00
2024-04-23T01:46:25.321Z,94668.00
2024-04-23T01:47:25.437Z,94667.00
2024-04-23T01:48:25.451Z,94667.00
2024-04-23T01:49:25.568Z,94667.00
2024-04-23T01:50:25.592Z,94665.00
2024-04-23T01:51:25.650Z,94664.00
2024-04-23T01:52:25.822Z,94667.00
2024-04-23T01:53:25.846Z,94666.00
2024-04-23T01:54:25.922Z,94665.00
2024-04-23T01:55:26.007Z,94666.00
2024-04-23T01:56:26.102Z,94666.00
2024-04-23T01:57:26.177Z,94662.00
2024-04-23T01:58:26.301Z,94663.00
2024-04-23T01:59:26.390Z,94662.00
2024-04-23T02:00:26.429Z,94661.00
2024-04-23T02:01:26.548Z,94662.00
2024-04-23T02:02:26.623Z,94657.00
2024-04-23T02:03:26.712Z,94657.00
2024-04-23T02:04:26.810Z,94654.00
2024-04-23T02:05:26.861Z,94654.00
2024-04-23T02:06:26.960Z,94652.00
2024-04-23T02:07:27.056Z,94651.00
2024-04-23T02:08:27.097Z,94649.00
2024-04-23T02:09:27.192Z,94650.00
2024-04-23T02:10:27.314Z,94652.00
2024-04-23T02:11:27.440Z,94651.00
2024-04-23T02:12:27.480Z,94651.00
2024-04-23T02:13:27.554Z,94652.00
2024-04-23T02:14:27.606Z,94653.00
2024-04-23T02:15:27.671Z,94652.00
2024-04-23T02:16:27.747Z,94653.00
2024-04-23T02:17:27.894Z,94655.00
2024-04-23T02:18:28.128Z,94652.00
2024-04-23T02:19:28.031Z,94652.00
2024-04-23T02:20:28.107Z,94651.00
2024-04-23T02:21:28.171Z,94653.00
2024-04-23T02:22:28.284Z,94655.00
2024-04-23T02:23:28.352Z,94652.00
2024-04-23T02:24:28.446Z,94652.00
2024-04-23T02:25:28.538Z,94649.00
2024-04-23T02:26:28.617Z,94648.00
2024-04-23T02:27:28.706Z,94645.00
2024-04-23T02:28:28.792Z,94646.00
2024-04-23T02:29:28.844Z,94644.00
2024-04-23T02:30:28.930Z,94645.00
2024-04-23T02:31:29.033Z,94643.00
2024-04-23T02:32:29.158Z,94642.00
2024-04-23T02:33:29.260Z,94641.00
2024-04-23T02:34:29.349Z,94639.00
2024-04-23T02:35:29.384Z,94639.00
2024-04-23T02:36:29.441Z,94639.00
2024-04-23T02:37:29.584Z,94638.00
2024-04-23T02:38:29.609Z,94639.00
2024-04-23T02:39:29.710Z,94638.00
2024-04-23T02:40:29.943Z,94636.00
2024-04-23T02:41:29.889Z,94637.00
2024-04-23T02:42:29.966Z,94636.00
2024-04-23T02:43:30.073Z,94637.00
2024-04-23T02:44:30.120Z,94638.00
2024-04-23T02:45:31.870Z,94636.00
2024-04-23T02:46:30.231Z,94635.00
2024-04-23T02:47:30.386Z,94633.00
2024-04-23T02:48:30.392Z,94632.00
2024-04-23T02:49:30.365Z,94634.00
2024-04-23T02:50:30.370Z,94634.00
2024-04-23T02:51:30.394Z,94633.00
2024-04-23T02:52:30.476Z,94633.00
2024-04-23T02:53:30.472Z,94633.00
2024-04-23T02:54:30.598Z,94631.00
2024-04-23T02:55:30.683Z,94631.00
2024-04-23T02:56:30.756Z,94629.00
2024-04-23T02:57:30.835Z,94628.00
2024-04-23T02:58:30.973Z,94627.00
2024-04-23T02:59:31.050Z,94625.00
2024-04-23T03:00:31.165Z,94624.00
2024-04-23T03:01:31.232Z,94623.00
2024-04-23T03:02:31.390Z,94624.00
2024-04-23T03:03:31.414Z,94625.00
2024-04-23T03:04:31.555Z,94624.00
2024-04-23T03:05:31.547Z,94624.00
2024-04-23T03:06:31.626Z,94622.00
2024-04-23T03:07:31.727Z,94622.00
2024-04-23T03:08:34.619Z,94622.00
2024-04-23T03:09:31.798Z,94620.00
2024-04-23T03:10:31.797Z,94620.00
2024-04-23T03:11:31.866Z,94618.00
2024-04-23T03:12:31.786Z,94617.00
2024-04-23T03:13:31.873Z,94617.00
2024-04-23T03:14:31.822Z,94615.00
2024-04-23T03:15:31.798Z,94615.00
2024-04-23T03:16:31.832Z,94615.00
2024-04-23T03:17:31.854Z,94615.00
2024-04-23T03:18:31.859Z,94615.00
2024-04-23T03:19:31.856Z,94614.00
2024-04-23T03:20:31.846Z,94616.00
2024-04-23T03:21:31.866Z,94616.00
2024-04-23T03:22:31.838Z,94615.00
2024-04-23T03:23:31.832Z,94613.00
2024-04-23T03:24:31.836Z,94614.00
2024-04-23T03:25:31.837Z,94614.00
2024-04-23T03:26:31.830Z,94612.00
2024-04-23T03:27:31.826Z,94611.00
2024-04-23T03:28:31.856Z,94610.00
2024-04-23T03:29:31.828Z,94608.00
2024-04-23T03:30:31.820Z,94607.00
2024-04-23T03:31:31.850Z,94608.00
2024-04-23T03:32:31.870Z,94609.00
2024-04-23T03:33:31.864Z,94606.00
2024-04-23T03:34:31.816Z,94610.00
2024-04-23T03:35:31.811Z,94607.00
2024-04-23T03:36:31.923Z,94608.00
2024-04-23T03:37:32.066Z,94610.00
2024-04-23T03:38:32.079Z,94608.00
2024-04-23T03:39:32.159Z,94610.00
2024-04-23T03:40:32.332Z,94610.00
2024-04-23T03:41:32.340Z,94611.00
2024-04-23T03:42:32.431Z,94609.00
2024-04-23T03:43:32.554Z,94608.00
2024-04-23T03:44:34.902Z,94607.00
2024-04-23T03:45:32.589Z,94605.00
2024-04-23T03:46:32.626Z,94605.00
2024-04-23T03:47:32.713Z,94604.00
2024-04-23T03:48:32.623Z,94605.00
2024-04-23T03:49:32.713Z,94606.00
2024-04-23T03:50:32.643Z,94604.00
2024-04-23T03:51:32.608Z,94605.00
2024-04-23T03:52:32.621Z,94604.00
2024-04-23T03:53:32.631Z,94604.00
2024-04-23T03:54:32.638Z,94604.00
2024-04-23T03:55:32.637Z,94604.00
2024-04-23T03:56:32.625Z,94609.00
2024-04-23T03:57:32.630Z,94605.00
2024-04-23T03:58:32.632Z,94608.00
2024-04-23T03:59:32.587Z,94608.00
2024-04-23T04:00:32.631Z,94605.00
2024-04-23T04:02:11.303Z,94605.00
2024-04-23T04:03:11.198Z,94605.00
2024-04-23T04:04:11.182Z,94604.00
2024-04-23T04:05:11.186Z,94602.00
2024-04-23T04:06:11.178Z,94601.00
2024-04-23T04:07:11.157Z,94600.00
2024-04-23T04:08:11.185Z,94599.00
2024-04-23T04:09:11.181Z,94599.00
2024-04-23T04:10:11.209Z,94600.00
2024-04-23T04:11:11.262Z,94601.00
2024-04-23T04:12:11.227Z,94602.00
2024-04-23T04:13:20.934Z,94602.00
2024-04-23T04:14:12.217Z,94598.00
2024-04-23T04:15:11.180Z,94597.00
2024-04-23T04:16:11.211Z,94595.00
2024-04-23T04:17:11.269Z,94593.00
2024-04-23T04:18:11.275Z,94593.00
2024-04-23T04:19:11.187Z,94590.00
2024-04-23T04:20:11.291Z,94588.00
2024-04-23T04:21:11.212Z,94589.00
2024-04-23T04:22:11.229Z,94590.00
2024-04-23T04:23:11.238Z,94591.00
2024-04-23T04:24:11.216Z,94592.00
2024-04-23T04:25:11.232Z,94595.00
2024-04-23T04:26:11.336Z,94598.00
2024-04-23T04:27:11.312Z,94599.00
2024-04-23T04:28:11.388Z,94598.00
2024-04-23T04:29:11.519Z,94599.00
2024-04-23T04:30:11.553Z,94597.00
2024-04-23T04:31:11.754Z,94597.00
2024-04-23T04:32:19.151Z,94596.00
2024-04-23T04:33:19.199Z,94598.00
2024-04-23T04:34:21.763Z,94595.00
2024-04-23T04:35:19.054Z,94594.00
2024-04-23T04:36:19.059Z,94593.00
2024-04-23T04:37:19.066Z,94588.00
2024-04-23T04:38:19.051Z,94584.00
2024-04-23T04:39:19.069Z,94583.00
2024-04-23T04:40:19.132Z,94584.00
2024-04-23T04:41:19.234Z,94583.00
2024-04-23T04:42:19.112Z,94587.00
2024-04-23T04:43:19.138Z,94588.00
2024-04-23T04:44:19.130Z,94591.00
2024-04-23T04:45:19.278Z,94592.00
2024-04-23T04:46:19.129Z,94593.00
2024-04-23T04:47:19.360Z,94594.00
2024-04-23T04:48:19.229Z,94593.00
2024-04-23T04:49:19.163Z,94594.00
2024-04-23T04:50:19.271Z,94592.00
2024-04-23T04:51:19.156Z,94591.00
2024-04-23T04:52:19.133Z,94591.00
2024-04-23T04:53:19.163Z,94591.00
2024-04-23T04:54:19.151Z,94590.00
2024-04-23T04:55:19.161Z,94590.00
2024-04-23T04:56:19.133Z,94591.00
2024-04-23T04:57:19.155Z,94588.00
2024-04-23T04:58:19.151Z,94590.00
2024-04-23T04:59:19.163Z,94589.00
2024-04-23T05:00:43.958Z,94586.00
2024-04-23T05:01:19.140Z,94584.00
2024-04-23T05:02:19.179Z,94584.00
2024-04-23T05:03:19.166Z,94582.00
2024-04-23T05:04:19.234Z,94585.00
2024-04-23T05:05:19.175Z,94586.00
2024-04-23T05:06:19.210Z,94588.00
2024-04-23T05:07:19.199Z,94588.00
2024-04-23T05:08:19.715Z,94588.00
2024-04-23T05:09:19.168Z,94588.00
2024-04-23T05:10:19.176Z,94588.00
2024-04-23T05:11:19.200Z,94588.00
2024-04-23T05:12:19.281Z,94586.00
2024-04-23T05:13:19.164Z,94584.00
2024-04-23T05:14:19.213Z,94583.00
2024-04-23T05:15:19.179Z,94582.00
2024-04-23T05:16:19.195Z,94583.00
2024-04-23T05:17:19.222Z,94582.00
2024-04-23T05:18:19.223Z,94581.00
2024-04-23T05:19:19.177Z,94582.00
2024-04-23T05:20:19.251Z,94581.00
2024-04-23T05:21:19.346Z,94582.00
2024-04-23T05:22:19.400Z,94584.00
2024-04-23T05:23:19.473Z,94586.00
2024-04-23T05:24:19.819Z,94586.00
2024-04-23T05:25:19.595Z,94585.00
2024-04-23T05:26:19.671Z,94587.00
2024-04-23T05:27:19.720Z,94586.00
2024-04-23T05:28:19.814Z,94585.00
2024-04-23T05:29:19.895Z,94585.00
2024-04-23T05:30:19.949Z,94587.00
2024-04-23T05:31:20.024Z,94584.00
2024-04-23T05:32:20.579Z,94584.00
2024-04-23T05:33:20.222Z,94585.00
2024-04-23T05:34:20.779Z,94585.00
2024-04-23T05:35:20.332Z,94584.00
2024-04-23T05:36:20.339Z,94583.00
2024-04-23T05:37:20.447Z,94582.00
2024-04-23T05:38:20.525Z,94584.00
2024-04-23T05:39:20.598Z,94586.00
2024-04-23T05:40:20.653Z,94586.00
2024-04-23T05:41:21.703Z,94588.00
2024-04-23T05:42:20.802Z,94588.00
2024-04-23T05:43:20.885Z,94589.00
2024-04-23T05:44:23.385Z,94591.00
2024-04-23T05:46:43.421Z,94593.00
2024-04-23T05:47:21.043Z,94595.00
2024-04-23T05:48:21.053Z,94595.00
2024-04-23T05:49:21.288Z,94594.00
2024-04-23T05:50:26.007Z,94596.00
2024-04-23T05:51:23.750Z,94597.00
2024-04-23T05:52:29.524Z,94594.00
2024-04-23T05:53:21.964Z,94595.00
2024-04-23T05:54:20.959Z,94593.00
2024-04-23T05:55:20.952Z,94592.00
2024-04-23T05:56:21.002Z,94590.00
2024-04-23T05:57:20.950Z,94589.00
2024-04-23T05:58:20.987Z,94590.00
2024-04-23T05:59:21.249Z,94589.00
2024-04-23T06:00:21.003Z,94590.00
2024-04-23T06:01:20.975Z,94591.00
2024-04-23T06:02:20.958Z,94590.00
2024-04-23T06:03:21.099Z,94593.00
2024-04-23T06:04:21.083Z,94596.00
2024-04-23T06:05:21.051Z,94595.00
2024-04-23T06:06:21.113Z,94599.00
2024-04-23T06:07:21.132Z,94598.00
2024-04-23T06:08:21.265Z,94601.00
2024-04-23T06:09:21.271Z,94603.00
2024-04-23T06:10:21.222Z,94606.00
2024-04-23T06:11:21.343Z,94605.00
2024-04-23T06:12:21.260Z,94609.00
2024-04-23T06:13:21.344Z,94610.00
2024-04-23T06:14:21.759Z,94610.00
2024-04-23T06:15:21.559Z,94611.00
2024-04-23T06:16:21.599Z,94612.00
2024-04-23T06:17:28.737Z,94614.00
2024-04-23T06:18:22.783Z,94616.00
2024-04-23T06:19:21.723Z,94615.00
2024-04-23T06:20:21.756Z,94617.00
2024-04-23T06:21:21.714Z,94618.00
2024-04-23T06:22:21.710Z,94620.00
2024-04-23T06:23:21.715Z,94619.00
2024-04-23T06:24:21.762Z,94619.00
2024-04-23T06:25:21.724Z,94619.00
2024-04-23T06:26:21.738Z,94620.00
2024-04-23T06:27:21.861Z,94619.00
2024-04-23T06:28:21.951Z,94617.00
2024-04-23T06:29:22.052Z,94617.00
2024-04-23T06:30:23.030Z,94618.00
2024-04-23T06:31:22.016Z,94618.00
2024-04-23T06:32:22.199Z,94615.00
2024-04-23T06:33:22.792Z,94614.00
2024-04-23T06:34:22.332Z,94615.00
2024-04-23T06:35:22.101Z,94611.00
2024-04-23T06:36:22.062Z,94608.00
2024-04-23T06:37:23.995Z,94607.00
2024-04-23T06:38:22.134Z,94607.00
2024-04-23T06:39:22.309Z,94607.00
2024-04-23T06:40:22.168Z,94608.00
2024-04-23T06:41:22.203Z,94606.00
2024-04-23T06:42:22.265Z,94606.00
2024-04-23T06:43:27.356Z,94607.00
2024-04-23T06:44:23.778Z,94605.00
2024-04-23T06:45:22.287Z,94606.00
2024-04-23T06:46:22.284Z,94606.00
2024-04-23T06:47:22.362Z,94604.00
2024-04-23T06:48:22.377Z,94605.00
2024-04-23T06:49:22.300Z,94604.00
2024-04-23T06:50:22.288Z,94606.00
2024-04-23T06:51:22.331Z,94606.00
2024-04-23T06:52:22.280Z,94608.00
2024-04-23T06:53:22.276Z,94607.00
2024-04-23T06:54:22.282Z,94611.00
2024-04-23T06:55:22.314Z,94610.00
2024-04-23T06:56:22.288Z,94609.00
2024-04-23T06:57:22.274Z,94609.00
2024-04-23T06:58:24.407Z,94607.00
2024-04-23T06:59:22.414Z,94606.00
2024-04-23T07:00:22.808Z,94606.00
2024-04-23T07:01:22.627Z,94605.00
2024-04-23T07:02:22.945Z,94604.00
2024-04-23T07:03:22.809Z,94604.00
2024-04-23T07:04:22.855Z,94603.00
2024-04-23T07:05:22.948Z,94603.00
2024-04-23T07:06:23.049Z,94603.00
2024-04-23T07:07:23.150Z,94602.00
2024-04-23T07:08:23.199Z,94599.00
2024-04-23T07:09:23.326Z,94600.00
2024-04-23T07:10:23.479Z,94600.00
2024-04-23T07:11:23.662Z,94597.00
2024-04-23T07:12:23.633Z,94597.00
2024-04-23T07:13:23.748Z,94599.00
2024-04-23T07:14:23.797Z,94597.00
2024-04-23T07:15:23.916Z,94598.00
2024-04-23T07:16:24.027Z,94599.00
2024-04-23T07:17:24.197Z,94599.00
2024-04-23T07:18:24.327Z,94598.00
2024-04-23T07:19:24.303Z,94598.00
2024-04-23T07:20:24.453Z,94598.00
2024-04-23T07:21:24.522Z,94598.00
2024-04-23T07:22:24.615Z,94596.00
2024-04-23T07:23:24.737Z,94595.00
2024-04-23T07:24:24.768Z,94592.00
2024-04-23T07:25:25.385Z,94591.00
2024-04-23T07:26:24.891Z,94591.00
2024-04-23T07:27:24.950Z,94589.00
2024-04-23T07:28:24.971Z,94589.00
2024-04-23T07:29:25.004Z,94589.00
2024-04-23T07:30:25.502Z,94588.00
2024-04-23T07:31:25.137Z,94592.00
2024-04-23T07:32:25.271Z,94591.00
2024-04-23T07:33:25.379Z,94592.00
2024-04-23T07:34:25.252Z,94592.00
2024-04-23T07:35:25.429Z,94596.00
2024-04-23T07:36:25.352Z,94596.00
2024-04-23T07:37:25.421Z,94596.00
2024-04-23T07:38:25.487Z,94595.00
2024-04-23T07:39:25.586Z,94594.00
2024-04-23T07:40:25.776Z,94593.00
2024-04-23T07:41:25.802Z,94593.00
2024-04-23T07:42:25.893Z,94593.00
2024-04-23T07:43:26.483Z,94592.00
2024-04-23T07:44:26.805Z,94591.00
2024-04-23T07:45:26.316Z,94592.00
2024-04-23T07:46:26.251Z,94592.00
2024-04-23T07:47:26.386Z,94593.00
2024-04-23T07:48:26.505Z,94589.00
2024-04-23T07:49:26.532Z,94588.00
2024-04-23T07:50:26.620Z,94591.00
2024-04-23T07:51:29.124Z,94590.00
2024-04-23T07:52:26.837Z,94587.00
2024-04-23T07:53:26.882Z,94589.00
2024-04-23T07:54:26.896Z,94587.00
2024-04-23T07:55:27.292Z,94588.00
2024-04-23T07:56:26.939Z,94589.00
2024-04-23T07:57:27.690Z,94588.00
2024-04-23T07:58:27.023Z,94587.00
2024-04-23T07:59:27.052Z,94589.00
2024-04-23T08:00:27.268Z,94591.00
2024-04-23T08:01:27.102Z,94591.00
2024-04-23T08:02:27.264Z,94592.00
2024-04-23T08:03:27.275Z,94587.00
2024-04-23T08:04:27.363Z,94589.00
2024-04-23T08:05:27.501Z,94589.00
2024-04-23T08:06:27.587Z,94588.00
2024-04-23T08:07:27.699Z,94586.00
2024-04-23T08:08:27.798Z,94585.00
2024-04-23T08:09:27.909Z,94586.00
2024-04-23T08:10:27.998Z,94585.00
2024-04-23T08:11:28.182Z,94587.00
2024-04-23T08:12:28.238Z,94587.00
2024-04-23T08:13:28.374Z,94586.00
2024-04-23T08:14:28.474Z,94588.00
2024-04-23T08:15:28.567Z,94589.00
2024-04-23T08:16:28.691Z,94587.00
2024-04-23T08:17:28.885Z,94589.00
2024-04-23T08:18:28.903Z,94590.00
2024-04-23T08:19:28.922Z,94590.00
2024-04-23T08:20:29.004Z,94589.00
2024-04-23T08:21:29.106Z,94592.00
2024-04-23T08:22:29.188Z,94589.00
2024-04-23T08:23:29.299Z,94590.00
2024-04-23T08:24:29.366Z,94588.00
2024-04-23T08:25:29.482Z,94586.00
2024-04-23T08:26:29.575Z,94587.00
2024-04-23T08:27:29.634Z,94588.00
2024-04-23T08:28:29.840Z,94588.00
2024-04-23T08:29:29.858Z,94588.00
2024-04-23T08:30:30.398Z,94590.00
2024-04-23T08:31:30.001Z,94590.00
2024-04-23T08:32:31.046Z,94590.00
2024-04-23T08:33:30.254Z,94588.00
2024-04-23T08:34:30.853Z,94588.00
2024-04-23T08:35:30.810Z,94587.00
2024-04-23T08:36:30.471Z,94588.00
2024-04-23T08:37:30.612Z,94586.00
2024-04-23T08:38:31.179Z,94588.00
2024-04-23T08:39:30.766Z,94587.00
2024-04-23T08:40:30.937Z,94589.00
2024-04-23T08:41:31.037Z,94587.00
2024-04-23T08:42:31.555Z,94588.00
2024-04-23T08:43:31.257Z,94588.00
2024-04-23T08:44:31.322Z,94588.00
2024-04-23T08:45:31.816Z,94587.00
2024-04-23T08:47:18.397Z,94588.00
2024-04-23T08:48:18.269Z,94589.00
2024-04-23T08:49:18.190Z,94588.00
2024-04-23T08:50:18.216Z,94586.00
2024-04-23T08:51:18.339Z,94587.00
2024-04-23T08:52:18.239Z,94586.00
2024-04-23T08:53:18.271Z,94586.00
2024-04-23T08:54:19.319Z,94587.00
2024-04-23T08:55:18.245Z,94588.00
2024-04-23T08:56:18.317Z,94587.00
2024-04-23T08:57:18.340Z,94589.00
2024-04-23T08:58:18.330Z,94587.00
2024-04-23T08:59:18.408Z,94589.00
2024-04-23T09:00:18.416Z,94587.00
2024-04-23T09:01:18.489Z,94587.00
2024-04-23T09:02:18.534Z,94586.00
2024-04-23T09:03:52.848Z,94585.00
2024-04-23T09:04:52.902Z,94584.00
2024-04-23T09:05:52.898Z,94583.00
2024-04-23T09:06:52.876Z,94582.00
2024-04-23T09:07:52.929Z,94582.00
2024-04-23T09:08:52.917Z,94581.00
2024-04-23T09:09:52.854Z,94577.00
2024-04-23T09:10:52.879Z,94576.00
2024-04-23T09:11:52.919Z,94574.00
2024-04-23T09:12:52.887Z,94573.00
2024-04-23T09:13:52.966Z,94572.00
2024-04-23T09:14:52.898Z,94569.00
2024-04-23T09:15:52.917Z,94569.00
2024-04-23T09:16:54.717Z,94568.00
2024-04-23T09:17:52.930Z,94568.00
2024-04-23T09:18:52.965Z,94567.00
2024-04-23T09:19:52.962Z,94564.00
2024-04-23T09:20:52.955Z,94566.00
2024-04-23T09:21:52.953Z,94564.00
2024-04-23T09:22:53.009Z,94561.00
2024-04-23T09:23:52.923Z,94559.00
2024-04-23T09:24:52.997Z,94561.00
2024-04-23T09:25:52.984Z,94559.00
2024-04-23T09:26:52.968Z,94559.00
2024-04-23T09:27:53.002Z,94561.00
2024-04-23T09:28:52.979Z,94559.00
2024-04-23T09:29:52.945Z,94559.00
2024-04-23T09:30:53.000Z,94558.00
2024-04-23T09:31:53.078Z,94558.00
2024-04-23T09:32:53.127Z,94558.00
2024-04-23T09:33:52.975Z,94555.00
2024-04-23T09:34:52.993Z,94553.00
2024-04-23T09:35:52.956Z,94556.00
2024-04-23T09:36:53.512Z,94555.00
2024-04-23T09:37:52.968Z,94555.00
2024-04-23T09:38:52.970Z,94555.00
2024-04-23T09:39:52.965Z,94555.00
2024-04-23T09:40:52.982Z,94554.00
2024-04-23T09:41:52.986Z,94555.00
2024-04-23T09:42:52.990Z,94553.00
2024-04-23T09:43:53.019Z,94551.00
2024-04-23T09:44:52.999Z,94549.00
2024-04-23T09:45:53.009Z,94551.00
2024-04-23T09:46:53.027Z,94549.00
2024-04-23T09:47:53.058Z,94546.00
2024-04-23T09:48:53.071Z,94546.00
2024-04-23T09:49:55.105Z,94543.00
2024-04-23T09:50:52.978Z,94545.00
2024-04-23T09:51:53.510Z,94544.00
2024-04-23T09:52:53.054Z,94546.00
2024-04-23T09:53:53.007Z,94545.00
2024-04-23T09:54:53.066Z,94546.00
2024-04-23T09:55:53.114Z,94546.00
2024-04-23T09:56:53.484Z,94547.00
2024-04-23T09:57:53.183Z,94544.00
2024-04-23T09:58:53.286Z,94543.00
2024-04-23T09:59:53.302Z,94542.00
2024-04-23T10:00:53.365Z,94539.00
2024-04-23T10:01:53.423Z,94537.00
2024-04-23T10:02:53.483Z,94535.00
2024-04-23T10:03:53.518Z,94532.00
2024-04-23T10:04:53.583Z,94530.00
2024-04-23T10:05:53.592Z,94527.00
2024-04-23T10:06:53.652Z,94525.00
2024-04-23T10:07:53.744Z,94524.00
2024-04-23T10:08:53.827Z,94522.00
2024-04-23T10:09:53.937Z,94521.00
2024-04-23T10:10:54.078Z,94523.00
2024-04-23T10:11:54.202Z,94520.00
2024-04-23T10:12:54.269Z,94517.00
2024-04-23T10:13:54.349Z,94518.00
2024-04-23T10:14:54.401Z,94515.00
2024-04-23T10:15:54.542Z,94515.00
2024-04-23T10:16:54.671Z,94513.00
2024-04-23T10:17:54.903Z,94512.00
2024-04-23T10:18:54.875Z,94509.00
2024-04-23T10:19:54.929Z,94513.00
2024-04-23T10:20:55.042Z,94511.00
2024-04-23T10:21:55.121Z,94509.00
2024-04-23T10:22:55.291Z,94508.00
2024-04-23T10:23:55.326Z,94508.00
2024-04-23T10:24:55.425Z,94507.00
2024-04-23T10:25:55.550Z,94503.00
2024-04-23T10:26:55.621Z,94503.00
2024-04-23T10:27:55.753Z,94503.00
2024-04-23T10:28:55.836Z,94501.00
2024-04-23T10:29:55.964Z,94501.00
2024-04-23T10:30:56.018Z,94499.00
2024-04-23T10:31:56.144Z,94500.00
2024-04-23T10:32:56.320Z,94501.00
2024-04-23T10:33:56.314Z,94500.00
2024-04-23T10:34:56.491Z,94501.00
2024-04-23T10:35:56.530Z,94502.00
2024-04-23T10:36:56.632Z,94498.00
2024-04-23T10:37:56.846Z,94500.00
2024-04-23T10:38:56.852Z,94497.00
2024-04-23T10:39:56.975Z,94498.00
2024-04-23T10:40:58.938Z,94498.00
2024-04-23T10:41:57.155Z,94500.00
2024-04-23T10:42:57.176Z,94498.00
2024-04-23T10:43:57.303Z,94498.00
2024-04-23T10:44:58.015Z,94495.00
2024-04-23T10:45:57.435Z,94495.00
2024-04-23T10:46:57.462Z,94494.00
2024-04-23T10:47:59.438Z,94493.00
2024-04-23T10:48:57.548Z,94493.00
2024-04-23T10:49:57.642Z,94492.00
2024-04-23T10:50:57.672Z,94491.00
2024-04-23T10:51:57.789Z,94494.00
2024-04-23T10:52:57.806Z,94491.00
2024-04-23T10:53:57.874Z,94494.00
2024-04-23T10:54:57.984Z,94495.00
2024-04-23T10:55:58.118Z,94497.00
2024-04-23T10:56:58.935Z,94495.00
2024-04-23T10:57:58.254Z,94496.00
2024-04-23T10:58:58.322Z,94495.00
2024-04-23T10:59:58.398Z,94492.00
2024-04-23T11:00:58.595Z,94495.00
2024-04-23T11:01:58.568Z,94495.00
2024-04-23T11:02:58.652Z,94494.00
2024-04-23T11:03:58.797Z,94494.00
2024-04-23T11:04:58.818Z,94495.00
2024-04-23T11:05:58.815Z,94492.00
2024-04-23T11:06:58.684Z,94493.00
2024-04-23T11:07:58.752Z,94492.00
2024-04-23T11:08:58.778Z,94493.00
2024-04-23T11:09:58.850Z,94490.00
2024-04-23T11:10:59.002Z,94493.00
2024-04-23T11:11:59.517Z,94492.00
2024-04-23T11:12:59.148Z,94492.00
2024-04-23T11:13:59.277Z,94492.00
2024-04-23T11:14:59.344Z,94487.00
2024-04-23T11:15:59.442Z,94491.00
2024-04-23T11:16:59.555Z,94488.00
2024-04-23T11:17:59.745Z,94490.00
2024-04-23T11:18:59.755Z,94493.00
2024-04-23T11:19:59.838Z,94493.00
2024-04-23T11:20:59.970Z,94493.00
2024-04-23T11:22:00.076Z,94490.00
2024-04-23T11:23:00.121Z,94488.00
2024-04-23T11:24:00.166Z,94487.00
2024-04-23T11:25:00.306Z,94485.00
2024-04-23T11:26:00.379Z,94487.00
2024-04-23T11:27:00.610Z,94485.00
2024-04-23T11:28:00.502Z,94485.00
2024-04-23T11:29:00.662Z,94484.00
2024-04-23T11:30:00.752Z,94483.00
2024-04-23T11:31:00.743Z,94485.00
2024-04-23T11:32:01.266Z,94481.00
2024-04-23T11:33:01.025Z,94481.00
2024-04-23T11:34:00.935Z,94480.00
2024-04-23T11:35:01.094Z,94481.00
2024-04-23T11:36:01.151Z,94481.00
2024-04-23T11:37:01.567Z,94482.00
2024-04-23T11:38:01.473Z,94481.00
2024-04-23T11:39:01.575Z,94481.00
2024-04-23T11:40:01.739Z,94481.00
2024-04-23T11:41:01.731Z,94481.00
2024-04-23T11:42:01.799Z,94481.00
2024-04-23T11:43:01.935Z,94477.00
2024-04-23T11:44:02.063Z,94477.00
2024-04-23T11:45:02.147Z,94478.00
2024-04-23T11:46:02.271Z,94473.00
2024-04-23T11:47:02.661Z,94474.00
2024-04-23T11:48:02.663Z,94474.00